createdAt,value
2023-02-16T00:01:50.682Z,-0.60
2023-02-16T00:04:21.410Z,-0.60
2023-02-16T00:06:49.585Z,-0.60
2023-02-16T00:09:18.363Z,-0.50
2023-02-16T00:12:06.343Z,-0.20
2023-02-16T00:14:35.903Z,-0.20
2023-02-16T00:17:03.834Z,-0.10
2023-02-16T00:19:35.516Z,-0.10
2023-02-16T00:22:03.668Z,-0.10
2023-02-16T00:24:32.637Z,-0.20
2023-02-16T00:27:02.447Z,-0.20
2023-02-16T00:29:32.880Z,-0.20
2023-02-16T00:32:02.312Z,-0.20
2023-02-16T00:34:32.675Z,-0.30
2023-02-16T00:37:02.823Z,-0.40
2023-02-16T00:39:31.511Z,-0.40
2023-02-16T00:42:03.427Z,-0.40
2023-02-16T00:44:34.958Z,-0.40
2023-02-16T00:47:09.860Z,-0.40
2023-02-16T00:49:37.625Z,-0.30
2023-02-16T00:52:24.269Z,-0.20
2023-02-16T00:54:52.011Z,-0.10
2023-02-16T00:57:21.483Z,0.00
2023-02-16T00:59:52.925Z,0.00
2023-02-16T01:02:20.672Z,0.10
2023-02-16T01:04:48.434Z,0.00
2023-02-16T01:07:37.504Z,0.00
2023-02-16T01:10:23.398Z,-0.10
2023-02-16T01:12:52.579Z,-0.20
2023-02-16T01:15:23.164Z,-0.20
2023-02-16T01:17:50.871Z,-0.20
2023-02-16T01:20:20.457Z,-0.20
2023-02-16T01:22:48.543Z,-0.10
2023-02-16T01:25:16.962Z,-0.10
2023-02-16T01:27:45.609Z,-0.10
2023-02-16T01:30:18.656Z,-0.10
2023-02-16T01:32:51.496Z,-0.10
2023-02-16T01:35:19.744Z,0.00
2023-02-16T01:37:47.443Z,-0.10
2023-02-16T01:40:39.244Z,-0.10
2023-02-16T01:43:18.479Z,0.00
2023-02-16T01:45:52.177Z,0.00
2023-02-16T01:48:25.667Z,0.00
2023-02-16T01:50:58.851Z,0.00
2023-02-16T01:53:32.494Z,-0.10
2023-02-16T01:56:05.110Z,-0.10
2023-02-16T01:58:39.238Z,-0.20
2023-02-16T02:01:40.900Z,-0.10
2023-02-16T02:04:43.936Z,-0.20
2023-02-16T02:07:20.262Z,-0.20
2023-02-16T02:09:57.441Z,-0.20
2023-02-16T02:12:31.705Z,-0.10
2023-02-16T02:14:59.452Z,-0.10
2023-02-16T02:17:28.937Z,0.00
2023-02-16T02:20:05.294Z,0.00
2023-02-16T02:23:31.181Z,0.00
2023-02-16T02:26:48.092Z,0.10
2023-02-16T02:29:35.622Z,0.10
2023-02-16T02:32:11.152Z,0.10
2023-02-16T02:34:53.790Z,0.00
2023-02-16T02:37:30.374Z,0.00
2023-02-16T02:40:07.886Z,-0.10
2023-02-16T02:42:45.608Z,-0.10
2023-02-16T02:45:19.606Z,-0.10
2023-02-16T02:47:48.836Z,-0.10
2023-02-16T02:51:03.409Z,-0.10
2023-02-16T02:53:31.881Z,-0.10
2023-02-16T02:56:19.425Z,-0.10
2023-02-16T02:59:06.481Z,0.00
2023-02-16T03:01:38.741Z,0.00
2023-02-16T03:04:09.251Z,0.00
2023-02-16T03:06:41.404Z,0.00
2023-02-16T03:09:14.121Z,0.00
2023-02-16T03:12:00.048Z,-0.10
2023-02-16T03:14:31.670Z,-0.10
2023-02-16T03:17:20.602Z,-0.20
2023-02-16T03:20:09.859Z,-0.20
2023-02-16T03:22:56.928Z,-0.30
2023-02-16T03:25:46.075Z,-0.30
2023-02-16T03:28:32.590Z,-0.30
2023-02-16T03:31:02.150Z,-0.30
2023-02-16T03:33:32.237Z,-0.30
2023-02-16T03:36:00.793Z,-0.30
2023-02-16T03:38:29.021Z,-0.40
2023-02-16T03:40:56.969Z,-0.30
2023-02-16T03:43:27.043Z,-0.30
2023-02-16T03:45:55.130Z,-0.30
2023-02-16T03:48:23.154Z,-0.30
2023-02-16T03:50:52.206Z,-0.40
2023-02-16T03:53:23.309Z,-0.40
2023-02-16T03:55:51.112Z,-0.50
2023-02-16T03:58:22.642Z,-0.50
2023-02-16T04:00:50.812Z,-0.50
2023-02-16T04:03:19.088Z,-0.60
2023-02-16T04:05:47.046Z,-0.70
2023-02-16T04:08:16.078Z,-0.80
2023-02-16T04:10:43.833Z,-0.80
2023-02-16T04:13:10.575Z,-0.70
2023-02-16T04:15:38.328Z,-0.60
2023-02-16T04:18:06.242Z,-0.50
2023-02-16T04:20:35.563Z,-0.40
2023-02-16T04:23:03.995Z,-0.40
2023-02-16T04:25:33.234Z,-0.30
2023-02-16T04:28:01.454Z,-0.30
2023-02-16T04:30:31.275Z,-0.40
2023-02-16T04:32:59.796Z,-0.30
2023-02-16T04:35:27.898Z,-0.30
2023-02-16T04:37:55.672Z,-0.30
2023-02-16T04:40:23.415Z,-0.30
2023-02-16T04:42:52.509Z,-0.30
2023-02-16T04:45:20.389Z,-0.30
2023-02-16T04:47:48.109Z,-0.30
2023-02-16T04:50:15.838Z,-0.30
2023-02-16T04:52:43.542Z,-0.30
2023-02-16T04:55:11.560Z,-0.20
2023-02-16T04:57:39.463Z,-0.20
2023-02-16T05:00:12.034Z,-0.20
2023-02-16T05:02:39.748Z,-0.20
2023-02-16T05:05:08.567Z,-0.20
2023-02-16T05:07:36.889Z,-0.10
2023-02-16T05:10:05.333Z,-0.10
2023-02-16T05:12:50.545Z,-0.10
2023-02-16T05:15:19.817Z,-0.20
2023-02-16T05:17:47.620Z,-0.20
2023-02-16T05:20:15.385Z,-0.20
2023-02-16T05:22:45.524Z,-0.20
2023-02-16T05:25:13.574Z,-0.30
2023-02-16T05:27:41.311Z,-0.30
2023-02-16T05:30:09.976Z,-0.30
2023-02-16T05:32:39.131Z,-0.30
2023-02-16T05:35:07.272Z,-0.30
2023-02-16T05:37:35.000Z,-0.30
2023-02-16T05:40:02.771Z,-0.30
2023-02-16T05:42:30.477Z,-0.30
2023-02-16T05:44:58.227Z,-0.30
2023-02-16T05:47:25.958Z,-0.30
2023-02-16T05:49:55.036Z,-0.40
2023-02-16T05:52:22.747Z,-0.50
2023-02-16T05:54:50.486Z,-0.50
2023-02-16T05:57:18.289Z,-0.50
2023-02-16T05:59:45.995Z,-0.50
2023-02-16T06:02:13.724Z,-0.50
2023-02-16T06:04:41.475Z,-0.50
2023-02-16T06:07:11.208Z,-0.50
2023-02-16T06:09:39.815Z,-0.50
2023-02-16T06:12:07.800Z,-0.40
2023-02-16T06:14:35.533Z,-0.40
2023-02-16T06:17:03.757Z,-0.40
2023-02-16T06:19:31.562Z,-0.30
2023-02-16T06:21:59.287Z,-0.30
2023-02-16T06:24:28.880Z,-0.30
2023-02-16T06:26:56.731Z,-0.20
2023-02-16T06:29:24.587Z,-0.20
2023-02-16T06:31:52.428Z,-0.20
2023-02-16T06:34:20.398Z,-0.20
2023-02-16T06:36:48.133Z,-0.20
2023-02-16T06:39:15.923Z,-0.20
2023-02-16T06:41:44.974Z,-0.20
2023-02-16T06:44:15.306Z,-0.20
2023-02-16T06:46:44.070Z,-0.20
2023-02-16T06:49:13.880Z,-0.10
2023-02-16T06:51:41.616Z,-0.10
2023-02-16T06:54:09.407Z,-0.10
2023-02-16T06:56:38.047Z,0.00
2023-02-16T06:59:08.772Z,0.00
2023-02-16T07:01:36.649Z,0.20
2023-02-16T07:04:04.568Z,0.10
2023-02-16T07:06:32.307Z,0.10
2023-02-16T07:09:00.611Z,0.20
2023-02-16T07:11:28.554Z,0.00
2023-02-16T07:13:56.370Z,0.30
2023-02-16T07:16:25.686Z,0.30
2023-02-16T07:18:53.432Z,0.30
2023-02-16T07:21:21.193Z,0.40
2023-02-16T07:23:48.914Z,0.50
2023-02-16T07:26:16.624Z,0.60
2023-02-16T07:28:44.394Z,0.60
2023-02-16T07:31:14.126Z,0.80
2023-02-16T07:33:43.376Z,0.90
2023-02-16T07:36:12.760Z,1.10
2023-02-16T07:38:41.907Z,1.20
2023-02-16T07:41:10.764Z,1.30
2023-02-16T07:43:39.135Z,1.50
2023-02-16T07:46:06.949Z,1.50
2023-02-16T07:48:34.730Z,1.60
2023-02-16T07:51:04.494Z,1.70
2023-02-16T07:53:32.633Z,1.80
2023-02-16T07:56:00.411Z,2.00
2023-02-16T07:58:28.293Z,2.10
2023-02-16T08:00:57.518Z,2.30
2023-02-16T08:03:25.462Z,2.40
2023-02-16T08:05:53.382Z,2.40
2023-02-16T08:08:22.696Z,2.40
2023-02-16T08:10:50.463Z,2.50
2023-02-16T08:13:18.171Z,2.60
2023-02-16T08:15:46.275Z,2.70
2023-02-16T08:18:14.097Z,2.90
2023-02-16T08:21:03.220Z,3.00
2023-02-16T08:23:31.438Z,3.20
2023-02-16T08:25:59.575Z,3.30
2023-02-16T08:28:28.885Z,3.40
2023-02-16T08:30:56.873Z,3.40
2023-02-16T08:33:25.089Z,3.50
2023-02-16T08:35:53.165Z,3.60
2023-02-16T08:38:21.004Z,3.70
2023-02-16T08:40:51.057Z,3.80
2023-02-16T08:43:18.815Z,3.70
2023-02-16T08:45:47.557Z,3.60
2023-02-16T08:48:16.614Z,3.60
2023-02-16T08:50:47.092Z,3.50
2023-02-16T08:53:15.440Z,3.50
2023-02-16T08:55:43.180Z,3.60
2023-02-16T08:58:12.225Z,3.80
2023-02-16T09:00:41.485Z,4.00
2023-02-16T09:03:09.213Z,4.10
2023-02-16T09:05:36.971Z,4.30
2023-02-16T09:08:05.004Z,4.50
2023-02-16T09:10:32.974Z,4.70
2023-02-16T09:13:00.693Z,4.80
2023-02-16T09:15:30.122Z,5.00
2023-02-16T09:17:57.945Z,5.00
2023-02-16T09:20:27.364Z,5.20
2023-02-16T09:22:55.148Z,5.30
2023-02-16T09:25:24.598Z,5.50
2023-02-16T09:27:53.153Z,7.60
2023-02-16T09:30:21.209Z,10.40
2023-02-16T09:32:50.785Z,13.10
2023-02-16T09:35:18.693Z,14.50
2023-02-16T09:37:46.423Z,15.40
2023-02-16T09:40:15.132Z,16.00
2023-02-16T09:42:56.790Z,17.00
2023-02-16T09:45:27.031Z,18.10
2023-02-16T09:47:59.309Z,17.50
2023-02-16T09:50:53.802Z,16.90
2023-02-16T09:53:31.390Z,17.10
2023-02-16T09:56:06.223Z,18.50
2023-02-16T09:58:42.681Z,20.60
2023-02-16T10:01:20.394Z,22.00
2023-02-16T10:04:00.982Z,23.40
2023-02-16T10:06:37.124Z,22.80
2023-02-16T10:09:09.300Z,21.00
2023-02-16T10:11:46.905Z,21.50
2023-02-16T10:14:24.342Z,21.30
2023-02-16T10:16:58.073Z,22.30
2023-02-16T10:19:30.305Z,23.10
2023-02-16T10:22:02.917Z,24.10
2023-02-16T10:24:43.560Z,23.50
2023-02-16T10:27:16.588Z,22.50
2023-02-16T10:29:44.581Z,22.60
2023-02-16T10:32:23.967Z,22.20
2023-02-16T10:35:01.941Z,22.00
2023-02-16T10:37:41.799Z,20.20
2023-02-16T10:40:23.696Z,19.10
2023-02-16T10:42:58.208Z,18.10
2023-02-16T10:45:32.929Z,16.80
2023-02-16T10:48:01.206Z,16.20
2023-02-16T10:50:34.147Z,16.40
2023-02-16T10:53:06.470Z,16.40
2023-02-16T10:55:34.525Z,16.90
2023-02-16T10:58:03.528Z,16.70
2023-02-16T11:00:46.881Z,16.00
2023-02-16T11:03:16.000Z,15.70
2023-02-16T11:05:45.114Z,15.20
2023-02-16T11:08:13.849Z,14.70
2023-02-16T11:10:48.732Z,15.50
2023-02-16T11:13:26.809Z,16.10
2023-02-16T11:15:56.872Z,16.00
2023-02-16T11:18:33.425Z,15.60
2023-02-16T11:21:03.913Z,15.40
2023-02-16T11:23:33.582Z,15.60
2023-02-16T11:26:05.628Z,15.90
2023-02-16T11:28:37.122Z,16.10
2023-02-16T11:31:13.612Z,15.40
2023-02-16T11:33:44.008Z,14.60
2023-02-16T11:36:28.879Z,13.90
2023-02-16T11:39:01.102Z,13.60
2023-02-16T11:41:29.951Z,13.90
2023-02-16T11:43:58.797Z,14.00
2023-02-16T11:46:27.114Z,14.30
2023-02-16T11:48:58.265Z,14.10
2023-02-16T11:51:36.384Z,13.80
2023-02-16T11:54:07.730Z,13.10
2023-02-16T11:56:36.851Z,12.80
2023-02-16T11:59:15.444Z,12.70
2023-02-16T12:02:13.047Z,12.70
2023-02-16T12:04:55.168Z,12.50
2023-02-16T12:07:31.378Z,12.50
2023-02-16T12:10:08.274Z,12.40
2023-02-16T12:12:45.479Z,12.50
2023-02-16T12:15:22.183Z,12.50
2023-02-16T12:18:02.764Z,12.50
2023-02-16T12:20:45.857Z,12.30
2023-02-16T12:23:29.597Z,12.10
2023-02-16T12:26:07.575Z,11.90
2023-02-16T12:28:42.901Z,12.10
2023-02-16T12:31:22.225Z,12.30
2023-02-16T12:33:57.627Z,12.30
2023-02-16T12:36:34.083Z,12.40
2023-02-16T12:39:16.653Z,12.30
2023-02-16T12:41:54.759Z,12.40
2023-02-16T12:44:36.543Z,12.50
2023-02-16T12:47:08.214Z,12.50
2023-02-16T12:49:43.778Z,12.30
2023-02-16T12:52:25.146Z,12.10
2023-02-16T12:54:59.252Z,12.30
2023-02-16T12:57:32.206Z,12.40
2023-02-16T13:00:07.120Z,12.50
2023-02-16T13:02:40.731Z,12.60
2023-02-16T13:05:12.244Z,12.70
2023-02-16T13:07:41.725Z,12.80
2023-02-16T13:10:22.509Z,12.70
2023-02-16T13:12:56.059Z,12.80
2023-02-16T13:15:31.474Z,12.80
2023-02-16T13:18:02.837Z,12.70
2023-02-16T13:20:31.161Z,12.80
2023-02-16T13:23:30.362Z,12.90
2023-02-16T13:26:21.708Z,12.90
2023-02-16T13:29:16.106Z,12.50
2023-02-16T13:31:54.797Z,12.40
2023-02-16T13:34:47.264Z,12.30
2023-02-16T13:37:25.192Z,12.20
2023-02-16T13:40:14.834Z,12.20
2023-02-16T13:43:20.362Z,12.10
2023-02-16T13:45:53.579Z,12.10
2023-02-16T13:48:27.410Z,12.00
2023-02-16T13:51:01.240Z,11.90
2023-02-16T13:53:34.780Z,11.90
2023-02-16T13:56:22.583Z,11.90
2023-02-16T13:58:53.120Z,11.90
2023-02-16T14:01:43.114Z,11.90
2023-02-16T14:04:36.219Z,11.90
2023-02-16T14:07:32.836Z,11.90
2023-02-16T14:10:00.614Z,11.80
2023-02-16T14:12:31.779Z,11.80
2023-02-16T14:15:03.425Z,11.70
2023-02-16T14:17:34.252Z,11.60
2023-02-16T14:20:05.312Z,11.50
2023-02-16T14:22:50.293Z,11.40
2023-02-16T14:25:38.034Z,11.20
2023-02-16T14:28:07.999Z,11.20
2023-02-16T14:30:46.403Z,11.20
2023-02-16T14:33:22.457Z,11.10
2023-02-16T14:36:09.081Z,11.10
2023-02-16T14:38:38.643Z,11.10
2023-02-16T14:41:09.041Z,11.00
2023-02-16T14:43:43.793Z,11.00
2023-02-16T14:46:38.018Z,11.00
2023-02-16T14:49:30.138Z,11.10
2023-02-16T14:52:37.289Z,11.10
2023-02-16T14:55:39.270Z,11.10
2023-02-16T14:58:23.409Z,11.10
2023-02-16T15:00:54.812Z,11.10
2023-02-16T15:03:26.030Z,11.10
2023-02-16T15:05:58.273Z,11.00
2023-02-16T15:08:34.944Z,11.00
2023-02-16T15:11:13.650Z,10.90
2023-02-16T15:13:42.861Z,10.90
2023-02-16T15:16:13.983Z,10.90
2023-02-16T15:18:46.602Z,10.90
2023-02-16T15:21:18.899Z,10.90
2023-02-16T15:23:51.197Z,10.80
2023-02-16T15:26:22.165Z,10.80
2023-02-16T15:28:55.579Z,10.70
2023-02-16T15:31:30.904Z,10.60
2023-02-16T15:34:05.719Z,10.50
2023-02-16T15:36:36.310Z,10.50
2023-02-16T15:39:06.930Z,10.40
2023-02-16T15:41:36.922Z,10.30
2023-02-16T15:44:06.891Z,10.20
2023-02-16T15:46:36.935Z,10.10
2023-02-16T15:49:14.225Z,10.10
2023-02-16T15:51:43.364Z,10.00
2023-02-16T15:54:22.993Z,9.90
2023-02-16T15:56:52.503Z,9.90
2023-02-16T15:59:31.744Z,9.80
2023-02-16T16:02:02.046Z,9.70
2023-02-16T16:04:32.308Z,9.70
2023-02-16T16:07:01.041Z,9.70
2023-02-16T16:09:30.619Z,9.70
2023-02-16T16:12:01.759Z,9.70
2023-02-16T16:14:33.997Z,9.70
2023-02-16T16:17:02.423Z,9.70
2023-02-16T16:19:35.775Z,9.60
2023-02-16T16:22:05.560Z,9.60
2023-02-16T16:24:38.831Z,9.50
2023-02-16T16:27:08.881Z,9.50
2023-02-16T16:29:41.386Z,9.50
2023-02-16T16:32:19.508Z,9.30
2023-02-16T16:34:49.664Z,9.20
2023-02-16T16:37:29.366Z,9.10
2023-02-16T16:40:04.176Z,9.10
2023-02-16T16:42:33.575Z,9.00
2023-02-16T16:45:06.968Z,8.90
2023-02-16T16:47:38.832Z,8.80
2023-02-16T16:50:30.649Z,8.80
2023-02-16T16:52:59.255Z,8.70
2023-02-16T16:55:33.687Z,8.60
2023-02-16T16:58:03.417Z,8.60
2023-02-16T17:00:35.132Z,8.40
2023-02-16T17:03:03.754Z,8.30
2023-02-16T17:05:32.981Z,8.30
2023-02-16T17:08:00.976Z,8.20
2023-02-16T17:10:29.497Z,8.30
2023-02-16T17:12:59.386Z,8.20
2023-02-16T17:15:34.783Z,8.10
2023-02-16T17:18:03.296Z,8.10
2023-02-16T17:20:32.556Z,8.10
2023-02-16T17:23:04.472Z,8.10
2023-02-16T17:25:34.200Z,8.10
2023-02-16T17:28:02.288Z,8.00
2023-02-16T17:30:30.335Z,8.00
2023-02-16T17:32:58.201Z,8.00
2023-02-16T17:35:26.320Z,8.00
2023-02-16T17:37:55.527Z,8.00
2023-02-16T17:40:25.122Z,8.00
2023-02-16T17:42:53.038Z,8.10
2023-02-16T17:45:23.245Z,8.00
2023-02-16T17:47:53.605Z,8.00
2023-02-16T17:50:22.013Z,8.00
2023-02-16T17:52:49.851Z,8.00
2023-02-16T17:55:19.018Z,7.90
2023-02-16T17:57:46.758Z,7.80
2023-02-16T18:00:18.644Z,7.80
2023-02-16T18:02:46.482Z,7.90
2023-02-16T18:05:14.750Z,7.90
2023-02-16T18:07:42.599Z,8.00
2023-02-16T18:10:17.144Z,8.00
2023-02-16T18:12:46.186Z,8.00
2023-02-16T18:15:13.945Z,8.10
2023-02-16T18:17:41.739Z,8.00
2023-02-16T18:20:10.337Z,8.00
2023-02-16T18:22:38.146Z,8.00
2023-02-16T18:25:06.584Z,8.00
2023-02-16T18:27:34.503Z,8.00
2023-02-16T18:30:03.737Z,7.90
2023-02-16T18:32:31.632Z,7.90
2023-02-16T18:34:59.660Z,7.90
2023-02-16T18:37:27.489Z,7.80
2023-02-16T18:39:55.287Z,7.80
2023-02-16T18:42:23.266Z,7.80
2023-02-16T18:44:51.166Z,7.70
2023-02-16T18:47:20.413Z,7.70
2023-02-16T18:49:49.534Z,7.60
2023-02-16T18:52:17.792Z,7.60
2023-02-16T18:54:45.724Z,7.60
2023-02-16T18:57:13.567Z,7.60
2023-02-16T18:59:41.389Z,7.60
2023-02-16T19:02:09.651Z,7.60
2023-02-16T19:04:39.139Z,7.60
2023-02-16T19:07:07.800Z,7.60
2023-02-16T19:09:35.706Z,7.60
2023-02-16T19:12:05.889Z,7.70
2023-02-16T19:14:33.696Z,7.80
2023-02-16T19:17:01.433Z,7.70
2023-02-16T19:19:30.809Z,7.80
2023-02-16T19:22:00.227Z,7.70
2023-02-16T19:24:27.985Z,7.70
2023-02-16T19:26:55.728Z,7.60
2023-02-16T19:29:23.529Z,7.60
2023-02-16T19:31:51.425Z,7.60
2023-02-16T19:34:19.293Z,7.60
2023-02-16T19:36:47.002Z,7.60
2023-02-16T19:39:16.355Z,7.60
2023-02-16T19:41:44.882Z,7.60
2023-02-16T19:44:14.406Z,7.70
2023-02-16T19:46:42.952Z,7.70
2023-02-16T19:49:14.078Z,7.70
2023-02-16T19:51:41.971Z,7.70
2023-02-16T19:54:09.874Z,7.70
2023-02-16T19:56:40.561Z,7.70
2023-02-16T19:59:08.820Z,7.70
2023-02-16T20:01:36.769Z,7.70
2023-02-16T20:04:04.963Z,7.60
2023-02-16T20:06:34.752Z,7.60
2023-02-16T20:09:03.282Z,7.60
2023-02-16T20:11:31.307Z,7.60
2023-02-16T20:14:01.911Z,7.70
2023-02-16T20:16:30.170Z,7.60
2023-02-16T20:18:58.700Z,7.60
2023-02-16T20:21:28.161Z,7.60
2023-02-16T20:23:58.444Z,7.60
2023-02-16T20:26:28.715Z,7.60
2023-02-16T20:28:57.198Z,7.60
2023-02-16T20:31:29.890Z,7.50
2023-02-16T20:33:58.029Z,7.50
2023-02-16T20:36:26.276Z,7.50
2023-02-16T20:38:55.539Z,7.50
2023-02-16T20:41:23.352Z,7.50
2023-02-16T20:43:51.376Z,7.50
2023-02-16T20:46:19.677Z,7.60
2023-02-16T20:48:50.015Z,7.60
2023-02-16T20:51:19.157Z,7.60
2023-02-16T20:53:47.454Z,7.60
2023-02-16T20:56:19.135Z,7.60
2023-02-16T20:58:48.276Z,7.60
2023-02-16T21:01:20.037Z,7.60
2023-02-16T21:03:49.277Z,7.60
2023-02-16T21:06:17.160Z,7.60
2023-02-16T21:08:45.058Z,7.50
2023-02-16T21:11:12.941Z,7.40
2023-02-16T21:13:41.463Z,7.40
2023-02-16T21:16:10.715Z,7.40
2023-02-16T21:18:40.572Z,7.40
2023-02-16T21:21:15.232Z,7.40
2023-02-16T21:23:43.516Z,7.30
2023-02-16T21:26:11.453Z,7.30
2023-02-16T21:28:39.651Z,7.30
2023-02-16T21:31:12.448Z,7.30
2023-02-16T21:33:40.507Z,7.30
2023-02-16T21:36:11.591Z,7.30
2023-02-16T21:38:40.534Z,7.20
2023-02-16T21:41:25.111Z,7.20
2023-02-16T21:43:59.344Z,7.20
2023-02-16T21:46:27.847Z,7.10
2023-02-16T21:48:55.288Z,7.10
2023-02-16T21:51:26.843Z,7.20
2023-02-16T21:53:55.075Z,7.10
2023-02-16T21:56:29.221Z,7.20
2023-02-16T21:58:57.827Z,7.10
2023-02-16T22:01:28.184Z,7.20
2023-02-16T22:03:58.571Z,7.20
2023-02-16T22:06:28.803Z,7.20
2023-02-16T22:08:56.725Z,7.20
2023-02-16T22:11:24.746Z,7.20
2023-02-16T22:13:55.758Z,7.20
2023-02-16T22:16:24.638Z,7.10
2023-02-16T22:18:57.766Z,7.20
2023-02-16T22:21:27.742Z,7.20
2023-02-16T22:23:55.752Z,7.20
2023-02-16T22:26:25.310Z,7.30
2023-02-16T22:28:53.206Z,7.20
2023-02-16T22:31:22.288Z,7.30
2023-02-16T22:33:55.920Z,7.30
2023-02-16T22:36:23.623Z,7.40
2023-02-16T22:38:53.453Z,7.40
2023-02-16T22:41:22.442Z,7.40
2023-02-16T22:43:53.268Z,7.40
2023-02-16T22:46:21.394Z,7.40
2023-02-16T22:48:49.410Z,7.40
2023-02-16T22:51:18.098Z,7.40
2023-02-16T22:53:45.857Z,7.40
2023-02-16T22:56:17.359Z,7.50
2023-02-16T22:58:45.417Z,7.40
2023-02-16T23:01:15.016Z,7.50
2023-02-16T23:03:43.370Z,7.50
2023-02-16T23:06:14.673Z,7.40
2023-02-16T23:08:42.584Z,7.40
2023-02-16T23:11:10.364Z,7.40
2023-02-16T23:13:40.058Z,7.40
2023-02-16T23:16:10.030Z,7.40
2023-02-16T23:18:37.965Z,7.40
2023-02-16T23:21:07.356Z,7.50
2023-02-16T23:23:35.336Z,7.50
2023-02-16T23:26:03.271Z,7.50
2023-02-16T23:28:31.089Z,7.50
2023-02-16T23:31:00.173Z,7.60
2023-02-16T23:33:28.042Z,7.50
2023-02-16T23:35:55.870Z,7.60
2023-02-16T23:38:23.759Z,7.50
2023-02-16T23:40:57.275Z,7.50
2023-02-16T23:43:25.443Z,7.50
2023-02-16T23:45:53.808Z,7.50
2023-02-16T23:48:23.649Z,7.50
2023-02-16T23:50:52.489Z,7.50
2023-02-16T23:53:21.722Z,7.50
2023-02-16T23:55:58.433Z,7.50
2023-02-16T23:58:27.819Z,7.60
